sensor_id;sensor_type;location;lat;lon;timestamp;pressure;altitude;pressure_sealevel;temperature;humidity
23321;BME280;33376;51.306;4.752;2023-07-09T00:02:15;99458.78;;;20.92;100.00
23321;BME280;33376;51.306;4.752;2023-07-09T00:04:40;99482.50;;;20.96;100.00
23321;BME280;33376;51.306;4.752;2023-07-09T00:07:08;99490.94;;;20.93;100.00
23321;BME280;33376;51.306;4.752;2023-07-09T00:09:36;99510.09;;;20.98;100.00
23321;BME280;33376;51.306;4.752;2023-07-09T00:12:02;99519.50;;;21.02;100.00
23321;BME280;33376;51.306;4.752;2023-07-09T00:14:27;99525.44;;;20.98;100.00
23321;BME280;33376;51.306;4.752;2023-07-09T00:16:52;99534.69;;;20.95;100.00
23321;BME280;33376;51.306;4.752;2023-07-09T00:19:19;99550.50;;;20.98;100.00
23321;BME280;33376;51.306;4.752;2023-07-09T00:21:45;99562.66;;;20.94;100.00
23321;BME280;33376;51.306;4.752;2023-07-09T00:24:13;99574.97;;;20.89;100.00
23321;BME280;33376;51.306;4.752;2023-07-09T00:26:39;99578.59;;;20.81;100.00
23321;BME280;33376;51.306;4.752;2023-07-09T00:29:15;99581.47;;;20.80;100.00
23321;BME280;33376;51.306;4.752;2023-07-09T00:31:40;99593.69;;;20.68;100.00
23321;BME280;33376;51.306;4.752;2023-07-09T00:34:09;99595.34;;;20.69;100.00
23321;BME280;33376;51.306;4.752;2023-07-09T00:36:37;99592.34;;;20.64;100.00
23321;BME280;33376;51.306;4.752;2023-07-09T00:39:03;99596.72;;;20.65;100.00
23321;BME280;33376;51.306;4.752;2023-07-09T00:41:36;99597.22;;;20.60;100.00
23321;BME280;33376;51.306;4.752;2023-07-09T00:49:14;99612.00;;;20.72;100.00
23321;BME280;33376;51.306;4.752;2023-07-09T00:51:43;99609.78;;;20.76;100.00
23321;BME280;33376;51.306;4.752;2023-07-09T00:54:12;99617.56;;;20.71;100.00
23321;BME280;33376;51.306;4.752;2023-07-09T00:56:40;99630.13;;;20.78;100.00
23321;BME280;33376;51.306;4.752;2023-07-09T00:59:09;99629.28;;;20.78;100.00
23321;BME280;33376;51.306;4.752;2023-07-09T01:01:37;99637.50;;;20.84;100.00
23321;BME280;33376;51.306;4.752;2023-07-09T01:04:05;99649.78;;;20.87;100.00
23321;BME280;33376;51.306;4.752;2023-07-09T01:06:37;99661.78;;;20.76;100.00
23321;BME280;33376;51.306;4.752;2023-07-09T01:09:04;99670.91;;;20.75;100.00
23321;BME280;33376;51.306;4.752;2023-07-09T01:11:31;99680.13;;;20.81;100.00
23321;BME280;33376;51.306;4.752;2023-07-09T01:13:57;99688.50;;;20.86;100.00
23321;BME280;33376;51.306;4.752;2023-07-09T01:16:25;99698.19;;;20.72;100.00
23321;BME280;33376;51.306;4.752;2023-07-09T01:18:51;99698.19;;;20.72;100.00
23321;BME280;33376;51.306;4.752;2023-07-09T01:21:17;99709.69;;;20.66;100.00
23321;BME280;33376;51.306;4.752;2023-07-09T01:23:43;99712.06;;;21.00;100.00
23321;BME280;33376;51.306;4.752;2023-07-09T01:26:16;99719.88;;;20.79;100.00
23321;BME280;33376;51.306;4.752;2023-07-09T01:28:42;99736.56;;;20.82;100.00
23321;BME280;33376;51.306;4.752;2023-07-09T01:31:09;99751.91;;;20.74;100.00
23321;BME280;33376;51.306;4.752;2023-07-09T01:33:34;99757.97;;;20.76;100.00
23321;BME280;33376;51.306;4.752;2023-07-09T01:35:59;99773.81;;;20.71;100.00
23321;BME280;33376;51.306;4.752;2023-07-09T01:38:28;99776.84;;;20.68;100.00
23321;BME280;33376;51.306;4.752;2023-07-09T01:40:56;99771.13;;;20.63;100.00
23321;BME280;33376;51.306;4.752;2023-07-09T01:43:21;99771.88;;;20.49;100.00
23321;BME280;33376;51.306;4.752;2023-07-09T01:45:46;99771.38;;;20.37;100.00
23321;BME280;33376;51.306;4.752;2023-07-09T01:48:15;99776.13;;;20.19;100.00
23321;BME280;33376;51.306;4.752;2023-07-09T01:50:40;99782.50;;;20.10;100.00
23321;BME280;33376;51.306;4.752;2023-07-09T01:53:08;99777.28;;;20.00;100.00
23321;BME280;33376;51.306;4.752;2023-07-09T01:55:34;99767.53;;;19.91;100.00
23321;BME280;33376;51.306;4.752;2023-07-09T01:57:59;99767.69;;;19.90;100.00
23321;BME280;33376;51.306;4.752;2023-07-09T02:00:25;99764.00;;;19.91;100.00
23321;BME280;33376;51.306;4.752;2023-07-09T02:02:50;99758.97;;;19.96;100.00
23321;BME280;33376;51.306;4.752;2023-07-09T02:05:17;99753.75;;;20.02;100.00
23321;BME280;33376;51.306;4.752;2023-07-09T02:07:44;99764.19;;;19.97;100.00
23321;BME280;33376;51.306;4.752;2023-07-09T02:10:10;99750.72;;;19.97;100.00
23321;BME280;33376;51.306;4.752;2023-07-09T02:12:35;99748.03;;;19.89;100.00
23321;BME280;33376;51.306;4.752;2023-07-09T02:15:01;99740.13;;;20.04;100.00
23321;BME280;33376;51.306;4.752;2023-07-09T02:17:26;99737.91;;;20.07;100.00
23321;BME280;33376;51.306;4.752;2023-07-09T02:19:51;99738.75;;;20.08;100.00
23321;BME280;33376;51.306;4.752;2023-07-09T02:22:17;99738.41;;;20.11;100.00
23321;BME280;33376;51.306;4.752;2023-07-09T02:24:44;99734.72;;;20.12;100.00
23321;BME280;33376;51.306;4.752;2023-07-09T02:27:10;99734.53;;;20.38;100.00
23321;BME280;33376;51.306;4.752;2023-07-09T02:29:35;99738.94;;;20.14;100.00
23321;BME280;33376;51.306;4.752;2023-07-09T02:32:01;99743.13;;;20.25;100.00
23321;BME280;33376;51.306;4.752;2023-07-09T02:34:27;99741.09;;;20.27;100.00
23321;BME280;33376;51.306;4.752;2023-07-09T02:36:53;99741.47;;;20.24;100.00
23321;BME280;33376;51.306;4.752;2023-07-09T02:39:18;99736.56;;;20.36;100.00
23321;BME280;33376;51.306;4.752;2023-07-09T02:41:44;99740.53;;;20.48;100.00
23321;BME280;33376;51.306;4.752;2023-07-09T02:44:09;99741.06;;;20.43;100.00
23321;BME280;33376;51.306;4.752;2023-07-09T02:46:35;99744.78;;;20.42;100.00
23321;BME280;33376;51.306;4.752;2023-07-09T02:49:01;99745.31;;;20.29;100.00
23321;BME280;33376;51.306;4.752;2023-07-09T02:51:26;99744.31;;;20.22;100.00
23321;BME280;33376;51.306;4.752;2023-07-09T02:53:53;99750.38;;;20.24;100.00
23321;BME280;33376;51.306;4.752;2023-07-09T02:56:19;99754.91;;;20.24;100.00
23321;BME280;33376;51.306;4.752;2023-07-09T02:58:44;99757.94;;;20.13;100.00
23321;BME280;33376;51.306;4.752;2023-07-09T03:01:09;99763.19;;;20.14;100.00
23321;BME280;33376;51.306;4.752;2023-07-09T03:03:34;99759.25;;;20.09;100.00
23321;BME280;33376;51.306;4.752;2023-07-09T03:06:00;99755.41;;;20.11;100.00
23321;BME280;33376;51.306;4.752;2023-07-09T03:08:25;99746.84;;;20.16;100.00
23321;BME280;33376;51.306;4.752;2023-07-09T03:10:50;99746.19;;;20.14;100.00
23321;BME280;33376;51.306;4.752;2023-07-09T03:13:15;99749.72;;;20.14;100.00
23321;BME280;33376;51.306;4.752;2023-07-09T03:15:41;99749.00;;;20.12;100.00
23321;BME280;33376;51.306;4.752;2023-07-09T03:18:06;99746.84;;;20.16;100.00
23321;BME280;33376;51.306;4.752;2023-07-09T03:20:31;99747.53;;;20.18;100.00
23321;BME280;33376;51.306;4.752;2023-07-09T03:22:57;99754.41;;;20.12;100.00
23321;BME280;33376;51.306;4.752;2023-07-09T03:25:22;99749.19;;;20.11;100.00
23321;BME280;33376;51.306;4.752;2023-07-09T03:27:48;99745.00;;;20.08;100.00
23321;BME280;33376;51.306;4.752;2023-07-09T03:30:13;99743.28;;;20.23;100.00
23321;BME280;33376;51.306;4.752;2023-07-09T03:32:39;99748.34;;;20.26;100.00
23321;BME280;33376;51.306;4.752;2023-07-09T03:35:10;99746.84;;;20.24;100.00
23321;BME280;33376;51.306;4.752;2023-07-09T03:37:35;99745.34;;;20.21;100.00
23321;BME280;33376;51.306;4.752;2023-07-09T03:40:00;99751.53;;;20.22;100.00
23321;BME280;33376;51.306;4.752;2023-07-09T03:42:31;99755.44;;;20.19;100.00
23321;BME280;33376;51.306;4.752;2023-07-09T03:44:57;99755.94;;;20.15;100.00
23321;BME280;33376;51.306;4.752;2023-07-09T03:47:22;99754.94;;;20.16;100.00
23321;BME280;33376;51.306;4.752;2023-07-09T03:49:47;99760.31;;;20.16;100.00
23321;BME280;33376;51.306;4.752;2023-07-09T03:52:13;99753.25;;;20.23;100.00
23321;BME280;33376;51.306;4.752;2023-07-09T03:54:42;99749.19;;;20.27;100.00
23321;BME280;33376;51.306;4.752;2023-07-09T03:57:10;99753.88;;;20.25;100.00
23321;BME280;33376;51.306;4.752;2023-07-09T03:59:35;99759.13;;;20.18;100.00
23321;BME280;33376;51.306;4.752;2023-07-09T04:02:02;99762.13;;;20.23;100.00
23321;BME280;33376;51.306;4.752;2023-07-09T04:04:28;99758.09;;;20.27;100.00
23321;BME280;33376;51.306;4.752;2023-07-09T04:06:53;99745.63;;;20.34;100.00
23321;BME280;33376;51.306;4.752;2023-07-09T04:09:18;99749.31;;;20.42;100.00
23321;BME280;33376;51.306;4.752;2023-07-09T04:11:43;99750.31;;;20.49;100.00
23321;BME280;33376;51.306;4.752;2023-07-09T04:14:09;99740.69;;;20.54;100.00
23321;BME280;33376;51.306;4.752;2023-07-09T04:16:34;99751.59;;;20.61;100.00
23321;BME280;33376;51.306;4.752;2023-07-09T04:18:59;99755.44;;;20.74;100.00
23321;BME280;33376;51.306;4.752;2023-07-09T04:21:24;99762.66;;;20.82;100.00
23321;BME280;33376;51.306;4.752;2023-07-09T04:23:50;99764.28;;;20.91;100.00
23321;BME280;33376;51.306;4.752;2023-07-09T04:26:15;99768.81;;;20.98;100.00
23321;BME280;33376;51.306;4.752;2023-07-09T04:28:40;99779.22;;;21.09;100.00
23321;BME280;33376;51.306;4.752;2023-07-09T04:31:05;99778.72;;;21.06;100.00
23321;BME280;33376;51.306;4.752;2023-07-09T04:33:30;99783.91;;;21.15;100.00
23321;BME280;33376;51.306;4.752;2023-07-09T04:35:56;99791.72;;;21.33;100.00
23321;BME280;33376;51.306;4.752;2023-07-09T04:38:22;99805.66;;;21.44;100.00
23321;BME280;33376;51.306;4.752;2023-07-09T04:40:47;99819.38;;;21.57;100.00
23321;BME280;33376;51.306;4.752;2023-07-09T04:43:13;99828.38;;;21.72;100.00
23321;BME280;33376;51.306;4.752;2023-07-09T04:45:38;99846.16;;;21.90;100.00
23321;BME280;33376;51.306;4.752;2023-07-09T04:48:03;99882.47;;;22.10;100.00
23321;BME280;33376;51.306;4.752;2023-07-09T04:50:28;99908.63;;;22.09;100.00
23321;BME280;33376;51.306;4.752;2023-07-09T04:52:54;99908.06;;;22.14;100.00
23321;BME280;33376;51.306;4.752;2023-07-09T04:55:19;99916.66;;;22.40;100.00
23321;BME280;33376;51.306;4.752;2023-07-09T04:57:45;99956.28;;;22.47;100.00
23321;BME280;33376;51.306;4.752;2023-07-09T05:00:10;99966.41;;;22.45;100.00
23321;BME280;33376;51.306;4.752;2023-07-09T05:02:36;99996.94;;;22.76;100.00
23321;BME280;33376;51.306;4.752;2023-07-09T05:05:01;100011.38;;;22.83;100.00
23321;BME280;33376;51.306;4.752;2023-07-09T05:07:26;100056.72;;;22.81;100.00
23321;BME280;33376;51.306;4.752;2023-07-09T05:09:52;100043.50;;;23.01;100.00
23321;BME280;33376;51.306;4.752;2023-07-09T05:12:18;100073.47;;;23.14;100.00
23321;BME280;33376;51.306;4.752;2023-07-09T05:14:45;100077.09;;;23.29;100.00
23321;BME280;33376;51.306;4.752;2023-07-09T05:17:10;100097.66;;;23.53;100.00
23321;BME280;33376;51.306;4.752;2023-07-09T05:19:35;100143.91;;;23.66;100.00
23321;BME280;33376;51.306;4.752;2023-07-09T05:22:00;100154.72;;;24.03;100.00
23321;BME280;33376;51.306;4.752;2023-07-09T05:24:26;100191.59;;;24.33;100.00
23321;BME280;33376;51.306;4.752;2023-07-09T05:26:51;100221.94;;;24.43;100.00
23321;BME280;33376;51.306;4.752;2023-07-09T05:29:16;100248.47;;;25.06;100.00
23321;BME280;33376;51.306;4.752;2023-07-09T05:31:42;100288.44;;;25.68;100.00
23321;BME280;33376;51.306;4.752;2023-07-09T05:34:08;100371.38;;;26.07;100.00
23321;BME280;33376;51.306;4.752;2023-07-09T05:36:33;100387.63;;;26.70;100.00
23321;BME280;33376;51.306;4.752;2023-07-09T05:38:58;100388.13;;;27.14;100.00
23321;BME280;33376;51.306;4.752;2023-07-09T05:41:24;100516.06;;;27.42;100.00
23321;BME280;33376;51.306;4.752;2023-07-09T05:43:50;100559.09;;;28.27;100.00
23321;BME280;33376;51.306;4.752;2023-07-09T05:46:15;100611.44;;;28.50;100.00
23321;BME280;33376;51.306;4.752;2023-07-09T05:48:40;100697.53;;;29.13;100.00
23321;BME280;33376;51.306;4.752;2023-07-09T05:51:06;100784.03;;;29.99;100.00
23321;BME280;33376;51.306;4.752;2023-07-09T05:53:31;100823.34;;;30.18;100.00
23321;BME280;33376;51.306;4.752;2023-07-09T05:55:59;101171.28;;;30.21;100.00
23321;BME280;33376;51.306;4.752;2023-07-09T05:58:24;101360.00;;;30.36;100.00
23321;BME280;33376;51.306;4.752;2023-07-09T06:00:50;101433.34;;;31.02;100.00
23321;BME280;33376;51.306;4.752;2023-07-09T06:03:23;101477.81;;;31.04;100.00
23321;BME280;33376;51.306;4.752;2023-07-09T06:05:49;101481.63;;;31.84;100.00
23321;BME280;33376;51.306;4.752;2023-07-09T06:08:15;101463.09;;;31.93;100.00
23321;BME280;33376;51.306;4.752;2023-07-09T06:10:49;101385.94;;;33.05;100.00
23321;BME280;33376;51.306;4.752;2023-07-09T06:13:15;101382.72;;;33.65;100.00
23321;BME280;33376;51.306;4.752;2023-07-09T06:15:40;101343.78;;;33.99;100.00
23321;BME280;33376;51.306;4.752;2023-07-09T06:18:06;101202.59;;;34.83;100.00
23321;BME280;33376;51.306;4.752;2023-07-09T06:20:34;101241.03;;;34.78;100.00
23321;BME280;33376;51.306;4.752;2023-07-09T06:22:59;101365.91;;;34.11;100.00
23321;BME280;33376;51.306;4.752;2023-07-09T06:25:25;101267.00;;;34.70;100.00
23321;BME280;33376;51.306;4.752;2023-07-09T06:27:50;101162.69;;;35.79;100.00
23321;BME280;33376;51.306;4.752;2023-07-09T06:30:16;101282.63;;;33.91;100.00
23321;BME280;33376;51.306;4.752;2023-07-09T06:32:43;101358.44;;;33.93;100.00
23321;BME280;33376;51.306;4.752;2023-07-09T06:35:08;101228.63;;;35.46;100.00
23321;BME280;33376;51.306;4.752;2023-07-09T06:37:33;101282.47;;;34.53;100.00
23321;BME280;33376;51.306;4.752;2023-07-09T06:39:58;101226.75;;;35.28;100.00
23321;BME280;33376;51.306;4.752;2023-07-09T06:42:23;101307.41;;;34.58;100.00
23321;BME280;33376;51.306;4.752;2023-07-09T06:44:49;101302.69;;;34.65;100.00
23321;BME280;33376;51.306;4.752;2023-07-09T06:47:14;101303.03;;;35.23;100.00
23321;BME280;33376;51.306;4.752;2023-07-09T06:49:39;101270.63;;;35.48;100.00
23321;BME280;33376;51.306;4.752;2023-07-09T06:52:05;101188.25;;;35.98;100.00
23321;BME280;33376;51.306;4.752;2023-07-09T06:54:30;101100.16;;;36.92;100.00
23321;BME280;33376;51.306;4.752;2023-07-09T06:56:55;101121.94;;;36.60;100.00
23321;BME280;33376;51.306;4.752;2023-07-09T06:59:24;101126.47;;;36.66;100.00
23321;BME280;33376;51.306;4.752;2023-07-09T07:01:49;101059.88;;;36.68;100.00
23321;BME280;33376;51.306;4.752;2023-07-09T07:04:18;101075.63;;;36.67;100.00
23321;BME280;33376;51.306;4.752;2023-07-09T07:06:44;101021.44;;;37.33;100.00
23321;BME280;33376;51.306;4.752;2023-07-09T07:09:09;101043.56;;;36.66;100.00
23321;BME280;33376;51.306;4.752;2023-07-09T07:11:34;100965.56;;;37.74;100.00
23321;BME280;33376;51.306;4.752;2023-07-09T07:14:00;100967.78;;;37.72;100.00
23321;BME280;33376;51.306;4.752;2023-07-09T07:16:25;100930.38;;;37.96;100.00
23321;BME280;33376;51.306;4.752;2023-07-09T07:18:50;100890.09;;;38.10;100.00
23321;BME280;33376;51.306;4.752;2023-07-09T07:21:15;100886.91;;;37.96;100.00
23321;BME280;33376;51.306;4.752;2023-07-09T07:23:41;100918.16;;;37.49;100.00
23321;BME280;33376;51.306;4.752;2023-07-09T07:26:06;100867.16;;;37.88;100.00
23321;BME280;33376;51.306;4.752;2023-07-09T07:28:33;100872.28;;;38.01;100.00
23321;BME280;33376;51.306;4.752;2023-07-09T07:30:59;100933.31;;;37.03;100.00
23321;BME280;33376;51.306;4.752;2023-07-09T07:33:25;100873.34;;;37.25;100.00
23321;BME280;33376;51.306;4.752;2023-07-09T07:35:50;100898.06;;;38.33;100.00
23321;BME280;33376;51.306;4.752;2023-07-09T07:38:15;100924.22;;;38.16;100.00
23321;BME280;33376;51.306;4.752;2023-07-09T07:40:43;100886.66;;;38.56;100.00
23321;BME280;33376;51.306;4.752;2023-07-09T07:43:09;100887.13;;;38.17;100.00
23321;BME280;33376;51.306;4.752;2023-07-09T07:45:34;100816.94;;;38.43;100.00
23321;BME280;33376;51.306;4.752;2023-07-09T07:47:59;100826.44;;;38.52;100.00
23321;BME280;33376;51.306;4.752;2023-07-09T07:50:24;100788.28;;;38.64;100.00
23321;BME280;33376;51.306;4.752;2023-07-09T07:52:50;100804.25;;;37.57;100.00
23321;BME280;33376;51.306;4.752;2023-07-09T07:55:15;100876.09;;;37.68;100.00
23321;BME280;33376;51.306;4.752;2023-07-09T07:57:41;100951.97;;;37.72;100.00
23321;BME280;33376;51.306;4.752;2023-07-09T08:00:06;100823.72;;;38.20;100.00
23321;BME280;33376;51.306;4.752;2023-07-09T08:02:32;100784.06;;;39.03;100.00
23321;BME280;33376;51.306;4.752;2023-07-09T08:04:57;100830.88;;;38.94;100.00
23321;BME280;33376;51.306;4.752;2023-07-09T08:07:22;100753.41;;;39.45;100.00
23321;BME280;33376;51.306;4.752;2023-07-09T08:09:47;100802.84;;;38.96;100.00
23321;BME280;33376;51.306;4.752;2023-07-09T08:12:13;100795.06;;;39.70;100.00
23321;BME280;33376;51.306;4.752;2023-07-09T08:14:40;100613.28;;;40.41;100.00
23321;BME280;33376;51.306;4.752;2023-07-09T08:17:06;100673.16;;;39.93;100.00
23321;BME280;33376;51.306;4.752;2023-07-09T08:19:31;100774.25;;;39.77;100.00
23321;BME280;33376;51.306;4.752;2023-07-09T08:21:57;100748.34;;;39.26;100.00
23321;BME280;33376;51.306;4.752;2023-07-09T08:24:22;100713.97;;;39.98;100.00
23321;BME280;33376;51.306;4.752;2023-07-09T08:26:48;100675.28;;;40.41;100.00
23321;BME280;33376;51.306;4.752;2023-07-09T08:29:13;100690.06;;;39.77;100.00
23321;BME280;33376;51.306;4.752;2023-07-09T08:31:38;100669.41;;;40.53;100.00
23321;BME280;33376;51.306;4.752;2023-07-09T08:34:05;100530.50;;;41.15;100.00
23321;BME280;33376;51.306;4.752;2023-07-09T08:36:30;100659.59;;;40.65;100.00
23321;BME280;33376;51.306;4.752;2023-07-09T08:38:56;100658.13;;;40.83;100.00
23321;BME280;33376;51.306;4.752;2023-07-09T08:43:52;100599.25;;;41.10;100.00
23321;BME280;33376;51.306;4.752;2023-07-09T08:46:28;100653.47;;;40.68;100.00
23321;BME280;33376;51.306;4.752;2023-07-09T08:48:54;100646.97;;;40.93;100.00
23321;BME280;33376;51.306;4.752;2023-07-09T08:51:26;100548.00;;;41.44;100.00
23321;BME280;33376;51.306;4.752;2023-07-09T08:53:54;100586.88;;;40.87;100.00
23321;BME280;33376;51.306;4.752;2023-07-09T08:56:22;100580.88;;;41.09;100.00
23321;BME280;33376;51.306;4.752;2023-07-09T08:58:47;100687.44;;;40.55;100.00
23321;BME280;33376;51.306;4.752;2023-07-09T09:01:20;100727.59;;;40.09;100.00
23321;BME280;33376;51.306;4.752;2023-07-09T09:03:48;100699.34;;;40.66;100.00
23321;BME280;33376;51.306;4.752;2023-07-09T09:06:36;100659.25;;;40.03;100.00
23321;BME280;33376;51.306;4.752;2023-07-09T09:16:41;100649.00;;;40.72;100.00
23321;BME280;33376;51.306;4.752;2023-07-09T09:19:14;100697.13;;;40.73;100.00
23321;BME280;33376;51.306;4.752;2023-07-09T09:21:40;100725.03;;;41.17;100.00
23321;BME280;33376;51.306;4.752;2023-07-09T09:24:21;100679.25;;;39.80;100.00
23321;BME280;33376;51.306;4.752;2023-07-09T09:26:48;100805.94;;;38.99;100.00
23321;BME280;33376;51.306;4.752;2023-07-09T09:29:15;100859.50;;;38.27;100.00
23321;BME280;33376;51.306;4.752;2023-07-09T09:31:42;100717.81;;;39.31;100.00
23321;BME280;33376;51.306;4.752;2023-07-09T09:34:16;100756.78;;;39.92;100.00
23321;BME280;33376;51.306;4.752;2023-07-09T09:36:42;100782.50;;;38.70;100.00
23321;BME280;33376;51.306;4.752;2023-07-09T09:39:08;100749.25;;;39.57;100.00
23321;BME280;33376;51.306;4.752;2023-07-09T09:41:34;100857.09;;;38.08;100.00
23321;BME280;33376;51.306;4.752;2023-07-09T09:44:01;100849.69;;;38.82;100.00
23321;BME280;33376;51.306;4.752;2023-07-09T09:46:27;100851.34;;;38.47;100.00
23321;BME280;33376;51.306;4.752;2023-07-09T09:48:54;100847.59;;;38.26;100.00
23321;BME280;33376;51.306;4.752;2023-07-09T09:51:20;100882.06;;;39.18;100.00
23321;BME280;33376;51.306;4.752;2023-07-09T09:53:49;100861.75;;;38.03;100.00
23321;BME280;33376;51.306;4.752;2023-07-09T09:56:19;100915.16;;;37.50;100.00
23321;BME280;33376;51.306;4.752;2023-07-09T09:58:45;100882.13;;;37.65;100.00
23321;BME280;33376;51.306;4.752;2023-07-09T10:01:17;100896.44;;;39.10;100.00
23321;BME280;33376;51.306;4.752;2023-07-09T10:03:42;100983.75;;;38.40;100.00
23321;BME280;33376;51.306;4.752;2023-07-09T10:13:41;101021.44;;;37.33;100.00
23321;BME280;33376;51.306;4.752;2023-07-09T10:18:59;101022.59;;;37.96;100.00
23321;BME280;33376;51.306;4.752;2023-07-09T10:21:34;100987.75;;;38.22;100.00
23321;BME280;33376;51.306;4.752;2023-07-09T10:27:00;100972.44;;;39.04;100.00
23321;BME280;33376;51.306;4.752;2023-07-09T10:37:14;100999.19;;;38.57;100.00
23321;BME280;33376;51.306;4.752;2023-07-09T10:39:46;101008.97;;;37.14;100.00
23321;BME280;33376;51.306;4.752;2023-07-09T10:42:23;101005.44;;;37.35;100.00
23321;BME280;33376;51.306;4.752;2023-07-09T10:44:56;101141.91;;;36.00;100.00
23321;BME280;33376;51.306;4.752;2023-07-09T10:47:27;101242.75;;;36.14;100.00
23321;BME280;33376;51.306;4.752;2023-07-09T10:49:53;101231.69;;;36.25;100.00
23321;BME280;33376;51.306;4.752;2023-07-09T10:52:25;101225.22;;;36.08;100.00
23321;BME280;33376;51.306;4.752;2023-07-09T10:57:21;101265.81;;;36.08;100.00
23321;BME280;33376;51.306;4.752;2023-07-09T10:59:48;101326.06;;;35.88;100.00
23321;BME280;33376;51.306;4.752;2023-07-09T11:02:16;101343.06;;;35.25;100.00
23321;BME280;33376;51.306;4.752;2023-07-09T11:04:46;101417.19;;;35.04;100.00
23321;BME280;33376;51.306;4.752;2023-07-09T11:07:13;101429.88;;;34.13;100.00
23321;BME280;33376;51.306;4.752;2023-07-09T11:09:43;101522.25;;;34.02;100.00
23321;BME280;33376;51.306;4.752;2023-07-09T11:12:15;101565.38;;;34.15;100.00
23321;BME280;33376;51.306;4.752;2023-07-09T11:17:17;101497.84;;;33.68;100.00
23321;BME280;33376;51.306;4.752;2023-07-09T11:19:45;101574.53;;;33.45;100.00
23321;BME280;33376;51.306;4.752;2023-07-09T11:22:20;101524.53;;;33.61;100.00
23321;BME280;33376;51.306;4.752;2023-07-09T11:24:50;101522.06;;;33.40;100.00
23321;BME280;33376;51.306;4.752;2023-07-09T11:27:16;101599.06;;;33.27;100.00
23321;BME280;33376;51.306;4.752;2023-07-09T11:29:46;101582.19;;;34.00;100.00
23321;BME280;33376;51.306;4.752;2023-07-09T11:32:17;101518.94;;;34.25;100.00
23321;BME280;33376;51.306;4.752;2023-07-09T11:34:46;101427.88;;;34.69;100.00
23321;BME280;33376;51.306;4.752;2023-07-09T11:37:12;101447.44;;;34.12;100.00
23321;BME280;33376;51.306;4.752;2023-07-09T11:42:03;101384.53;;;34.40;100.00
23321;BME280;33376;51.306;4.752;2023-07-09T11:44:30;101412.06;;;33.40;100.00
23321;BME280;33376;51.306;4.752;2023-07-09T11:52:18;101583.84;;;32.99;100.00
23321;BME280;33376;51.306;4.752;2023-07-09T11:54:45;101607.50;;;32.80;100.00
23321;BME280;33376;51.306;4.752;2023-07-09T11:57:11;101590.16;;;32.86;100.00
23321;BME280;33376;51.306;4.752;2023-07-09T11:59:38;101645.94;;;32.67;100.00
23321;BME280;33376;51.306;4.752;2023-07-09T12:02:03;101635.47;;;32.36;100.00
23321;BME280;33376;51.306;4.752;2023-07-09T12:04:32;101702.69;;;31.72;100.00
23321;BME280;33376;51.306;4.752;2023-07-09T12:06:59;101662.97;;;31.96;100.00
23321;BME280;33376;51.306;4.752;2023-07-09T12:09:29;101639.47;;;31.53;100.00
23321;BME280;33376;51.306;4.752;2023-07-09T12:11:55;101676.34;;;31.50;100.00
23321;BME280;33376;51.306;4.752;2023-07-09T12:14:21;101725.84;;;31.00;100.00
23321;BME280;33376;51.306;4.752;2023-07-09T12:16:51;101726.38;;;30.74;100.00
23321;BME280;33376;51.306;4.752;2023-07-09T12:19:17;101764.56;;;30.61;100.00
23321;BME280;33376;51.306;4.752;2023-07-09T12:21:44;101715.69;;;30.44;100.00
23321;BME280;33376;51.306;4.752;2023-07-09T12:26:42;101766.22;;;29.75;100.00
23321;BME280;33376;51.306;4.752;2023-07-09T12:29:08;101806.34;;;29.37;100.00
23321;BME280;33376;51.306;4.752;2023-07-09T12:31:34;101820.56;;;29.33;100.00
23321;BME280;33376;51.306;4.752;2023-07-09T12:33:59;101800.03;;;29.37;100.00
23321;BME280;33376;51.306;4.752;2023-07-09T12:36:25;101784.22;;;28.94;100.00
23321;BME280;33376;51.306;4.752;2023-07-09T12:38:52;101811.56;;;28.47;100.00
23321;BME280;33376;51.306;4.752;2023-07-09T12:41:24;101804.13;;;28.25;100.00
23321;BME280;33376;51.306;4.752;2023-07-09T12:43:53;101800.28;;;27.87;100.00
23321;BME280;33376;51.306;4.752;2023-07-09T12:46:19;101814.06;;;28.10;100.00
23321;BME280;33376;51.306;4.752;2023-07-09T12:48:45;101801.09;;;28.04;100.00
23321;BME280;33376;51.306;4.752;2023-07-09T12:51:15;101808.75;;;28.16;100.00
23321;BME280;33376;51.306;4.752;2023-07-09T12:53:40;101832.84;;;27.89;100.00
23321;BME280;33376;51.306;4.752;2023-07-09T12:56:07;101793.81;;;27.64;100.00
23321;BME280;33376;51.306;4.752;2023-07-09T12:58:36;101802.84;;;27.65;100.00
23321;BME280;33376;51.306;4.752;2023-07-09T13:01:08;101780.19;;;27.64;100.00
23321;BME280;33376;51.306;4.752;2023-07-09T13:03:38;101768.09;;;27.43;100.00
23321;BME280;33376;51.306;4.752;2023-07-09T13:06:04;101790.06;;;27.33;100.00
23321;BME280;33376;51.306;4.752;2023-07-09T13:08:31;101806.19;;;27.18;100.00
23321;BME280;33376;51.306;4.752;2023-07-09T13:10:57;101827.44;;;27.07;100.00
23321;BME280;33376;51.306;4.752;2023-07-09T13:13:24;101849.38;;;27.05;100.00
23321;BME280;33376;51.306;4.752;2023-07-09T13:15:57;101884.09;;;26.70;100.00
23321;BME280;33376;51.306;4.752;2023-07-09T13:18:24;101765.59;;;25.82;100.00
23321;BME280;33376;51.306;4.752;2023-07-09T13:20:50;101623.78;;;25.10;100.00
23321;BME280;33376;51.306;4.752;2023-07-09T13:23:17;101350.63;;;24.34;100.00
23321;BME280;33376;51.306;4.752;2023-07-09T13:25:43;101219.59;;;23.92;100.00
23321;BME280;33376;51.306;4.752;2023-07-09T13:28:19;101022.72;;;23.59;100.00
23321;BME280;33376;51.306;4.752;2023-07-09T13:30:45;100727.28;;;23.30;100.00
23321;BME280;33376;51.306;4.752;2023-07-09T13:33:10;100281.09;;;23.12;100.00